Abyar Ali, Saudi Arabia
Current Conditions -  °F | °C
As of 4:00 AM on Tuesday 25 Nov 2014 (Local Time) from OEMA Reporting Station
Clear Clear  
Wind Chill: 63°   Ceiling: Unl
Heat Index: 63°   Visibility: 6mi
Dew Point: 41°   Wind: 7mph
Humidity: 45%   Direction: 270°W
Pressure: 29.97"   Gusts: NA
Location:  24.45°N, 39.55°E
Report Text: OEMA 250100Z 27006KT CAVOK 17/05 Q1015 NOSIG
Loading
Personal Weather Stations






























Interactive Weather Map New forecast layout! Learn more

10-Day Weather Forecast

Advertisements
Track Severe Weather on mobile